Time;durP1;ratioP1;P1;durP2;ratioP2;P2;SDS_P1;SDS_P2;PMS_P1;PMS_P2;Temp;Humidity;BMP_temperature;BMP_pressure;BME280_temperature;BME280_humidity;BME280_pressure;Samples;Min_cycle;Max_cycle;Signal;HPM_P1;HPM_P2
2021/10/31 00:01:28;;;;;;;16.75;2.28;;;;;;;;;;5070778;28;20027;-50
2021/10/31 00:03:55;;;;;;;15.27;2.42;;;;;;;;;;5069940;28;20044;-58
2021/10/31 00:06:22;;;;;;;45.88;4.65;;;;;;;;;;5070399;28;20031;-51
2021/10/31 00:08:50;;;;;;;21.27;3.22;;;;;;;;;;5064457;28;20036;-54
2021/10/31 00:11:18;;;;;;;27.05;3.42;;;;;;;;;;5073065;28;20021;-55
2021/10/31 00:13:45;;;;;;;27.17;3.22;;;;;;;;;;5074891;28;20032;-55
2021/10/31 00:16:12;;;;;;;24.15;2.90;;;;;;;;;;5085749;28;20487;-56
2021/10/31 00:18:39;;;;;;;24.38;3.00;;;;;;;;;;5073395;28;20708;-55
2021/10/31 00:21:07;;;;;;;28.60;3.50;;;;;;;;;;5074253;28;20531;-53
2021/10/31 00:23:34;;;;;;;17.60;3.05;;;;;;;;;;5078288;28;20045;-56
2021/10/31 00:26:01;;;;;;;15.82;2.90;;;;;;;;;;5080658;28;20029;-56
2021/10/31 00:28:28;;;;;;;22.27;3.60;;;;;;;;;;5086597;28;20036;-55
2021/10/31 00:30:55;;;;;;;26.00;3.00;;;;;;;;;;5077229;28;20079;-49
2021/10/31 00:33:22;;;;;;;17.73;2.40;;;;;;;;;;5077694;28;20031;-51
2021/10/31 00:35:49;;;;;;;15.98;3.17;;;;;;;;;;5081016;28;20024;-50
2021/10/31 00:38:17;;;;;;;18.98;3.70;;;;;;;;;;5075125;28;20060;-53
2021/10/31 00:40:44;;;;;;;14.70;3.50;;;;;;;;;;5078277;28;20031;-51
2021/10/31 00:43:12;;;;;;;22.17;3.50;;;;;;;;;;5088317;28;20035;-53
2021/10/31 00:45:39;;;;;;;22.92;3.72;;;;;;;;;;5076694;28;20128;-52
2021/10/31 00:48:06;;;;;;;19.73;3.65;;;;;;;;;;5071636;28;20031;-47
2021/10/31 00:50:33;;;;;;;14.30;3.72;;;;;;;;;;5056795;28;20060;-52
2021/10/31 00:53:01;;;;;;;22.85;3.78;;;;;;;;;;5080749;28;20024;-47
2021/10/31 00:55:29;;;;;;;24.65;5.93;;;;;;;;;;5078206;28;20020;-51
2021/10/31 00:57:57;;;;;;;37.28;11.20;;;;;;;;;;5073405;28;20047;-49
2021/10/31 01:00:24;;;;;;;44.15;15.70;;;;;;;;;;5076012;28;20016;-50
2021/10/31 01:02:52;;;;;;;50.50;18.10;;;;;;;;;;5079213;28;20353;-49
2021/10/31 01:05:21;;;;;;;77.75;29.63;;;;;;;;;;5082310;28;20028;-48
2021/10/31 01:07:59;;;;;;;81.88;32.90;;;;;;;;;;5078073;28;20028;-53
2021/10/31 01:10:27;;;;;;;96.97;36.38;;;;;;;;;;5085498;28;20391;-50
2021/10/31 01:13:00;;;;;;;93.80;33.05;;;;;;;;;;5079194;28;20544;-49
2021/10/31 01:15:30;;;;;;;84.43;32.78;;;;;;;;;;5101818;28;20020;-49
2021/10/31 01:18:06;;;;;;;72.78;28.42;;;;;;;;;;5080157;28;20025;-51
2021/10/31 01:20:40;;;;;;;68.68;26.70;;;;;;;;;;5088464;28;20039;-51
2021/10/31 01:23:07;;;;;;;67.47;25.75;;;;;;;;;;5072522;28;20044;-53
2021/10/31 01:25:33;;;;;;;65.25;23.10;;;;;;;;;;5070621;28;20525;-49
2021/10/31 01:28:10;;;;;;;58.22;22.25;;;;;;;;;;5073673;28;20052;-47
2021/10/31 01:30:43;;;;;;;52.38;20.08;;;;;;;;;;5070594;28;20020;-49
2021/10/31 01:33:17;;;;;;;54.40;19.67;;;;;;;;;;5069336;28;20444;-47
2021/10/31 01:35:44;;;;;;;50.40;18.23;;;;;;;;;;5071154;28;20540;-50
2021/10/31 01:38:29;;;;;;;53.17;18.08;;;;;;;;;;5071387;28;20051;-50
2021/10/31 01:40:57;;;;;;;49.45;17.30;;;;;;;;;;5070176;28;20031;-50
2021/10/31 01:43:27;;;;;;;48.55;17.00;;;;;;;;;;5073113;28;20032;-55
2021/10/31 01:45:58;;;;;;;44.17;16.65;;;;;;;;;;5070428;28;20483;-54
2021/10/31 01:48:25;;;;;;;46.53;16.88;;;;;;;;;;5070054;28;20056;-52
2021/10/31 01:50:56;;;;;;;40.38;15.13;;;;;;;;;;5068798;28;20020;-54
2021/10/31 01:53:30;;;;;;;39.57;14.77;;;;;;;;;;5069152;28;20028;-54
2021/10/31 01:56:00;;;;;;;33.45;13.63;;;;;;;;;;5069013;28;20016;-53
2021/10/31 01:58:27;;;;;;;36.85;13.75;;;;;;;;;;5071204;28;20051;-55
2021/10/31 02:00:55;;;;;;;36.00;12.65;;;;;;;;;;5069056;28;20017;-50
2021/10/31 02:03:23;;;;;;;31.23;11.90;;;;;;;;;;5068704;28;20059;-56
2021/10/31 02:05:50;;;;;;;29.85;11.65;;;;;;;;;;5054419;28;20028;-55
2021/10/31 02:08:20;;;;;;;34.13;12.63;;;;;;;;;;5071397;28;20025;-53
2021/10/31 02:10:49;;;;;;;30.08;10.57;;;;;;;;;;5069518;28;20024;-57
2021/10/31 02:13:16;;;;;;;34.22;11.35;;;;;;;;;;5073246;28;20094;-55
2021/10/31 02:15:44;;;;;;;36.20;10.70;;;;;;;;;;5070549;28;20050;-54
2021/10/31 02:18:13;;;;;;;30.48;9.95;;;;;;;;;;5070194;28;20040;-54
2021/10/31 02:20:42;;;;;;;27.42;9.43;;;;;;;;;;5071651;28;20048;-49
2021/10/31 02:23:09;;;;;;;24.23;9.45;;;;;;;;;;5081597;28;20032;-54
2021/10/31 02:25:36;;;;;;;26.88;9.02;;;;;;;;;;5072219;28;20357;-56
2021/10/31 02:28:03;;;;;;;29.95;9.70;;;;;;;;;;5076406;28;20028;-59
2021/10/31 02:30:31;;;;;;;23.50;8.98;;;;;;;;;;5051636;28;20109;-56
2021/10/31 02:32:58;;;;;;;31.70;8.63;;;;;;;;;;5082716;28;20055;-56
2021/10/31 02:35:25;;;;;;;29.33;8.32;;;;;;;;;;5089242;28;20024;-56
2021/10/31 02:37:52;;;;;;;24.27;8.52;;;;;;;;;;5078836;28;20040;-52
2021/10/31 02:40:21;;;;;;;30.65;8.38;;;;;;;;;;5071119;28;20016;-54
2021/10/31 02:42:48;;;;;;;24.48;8.10;;;;;;;;;;5069939;28;20044;-57
2021/10/31 02:45:15;;;;;;;28.30;8.55;;;;;;;;;;5070526;28;20017;-58
2021/10/31 02:48:01;;;;;;;24.13;8.00;;;;;;;;;;5074159;28;20479;-53
2021/10/31 02:50:35;;;;;;;25.85;8.23;;;;;;;;;;5073303;28;20089;-55
2021/10/31 02:53:14;;;;;;;25.15;7.60;;;;;;;;;;5070274;28;20009;-57
2021/10/31 02:55:45;;;;;;;28.38;8.00;;;;;;;;;;5069255;28;20590;-62
2021/10/31 02:58:16;;;;;;;20.63;7.35;;;;;;;;;;5069832;28;20021;-61
2021/10/31 03:00:44;;;;;;;20.98;7.40;;;;;;;;;;5071332;28;20013;-59
2021/10/31 03:03:13;;;;;;;20.85;6.80;;;;;;;;;;5073076;28;20020;-48
2021/10/31 03:05:52;;;;;;;24.20;7.18;;;;;;;;;;5070623;28;20415;-63
2021/10/31 03:08:21;;;;;;;26.50;7.70;;;;;;;;;;5073405;28;20024;-52
2021/10/31 03:10:53;;;;;;;22.65;6.97;;;;;;;;;;5070781;28;20036;-59
2021/10/31 03:13:20;;;;;;;;;;;;;;;;;;5071041;28;20103;-59
2021/10/31 03:15:48;;;;;;;20.20;7.07;;;;;;;;;;5076129;28;19908;-61
2021/10/31 03:18:16;;;;;;;22.73;7.10;;;;;;;;;;5073249;28;20036;-60
2021/10/31 03:20:44;;;;;;;21.05;6.35;;;;;;;;;;5073539;28;20062;-59
2021/10/31 03:23:13;;;;;;;16.52;6.05;;;;;;;;;;5072926;28;20492;-56
2021/10/31 03:25:41;;;;;;;27.73;7.22;;;;;;;;;;5070164;28;20112;-59
2021/10/31 03:28:09;;;;;;;23.35;7.40;;;;;;;;;;5070863;28;20033;-55
2021/10/31 03:30:37;;;;;;;20.27;6.72;;;;;;;;;;5072933;28;20017;-54
2021/10/31 03:33:05;;;;;;;18.80;5.78;;;;;;;;;;5069901;28;20052;-59
2021/10/31 03:35:33;;;;;;;17.27;5.40;;;;;;;;;;5072750;28;20025;-56
2021/10/31 03:38:01;;;;;;;20.13;6.68;;;;;;;;;;5068104;28;20036;-54
2021/10/31 03:40:29;;;;;;;15.45;5.43;;;;;;;;;;5072031;28;20111;-60
2021/10/31 03:42:57;;;;;;;17.05;5.32;;;;;;;;;;5071755;28;20032;-60
2021/10/31 03:45:25;;;;;;;21.13;6.20;;;;;;;;;;5073783;28;20016;-59
2021/10/31 03:47:53;;;;;;;16.45;5.40;;;;;;;;;;5073273;28;20062;-62
2021/10/31 03:50:22;;;;;;;20.13;6.03;;;;;;;;;;5076690;28;20016;-61
2021/10/31 03:52:50;;;;;;;19.83;6.05;;;;;;;;;;5073417;28;20091;-61
2021/10/31 03:55:19;;;;;;;19.02;5.35;;;;;;;;;;5077510;28;20074;-60
2021/10/31 03:57:47;;;;;;;18.00;5.82;;;;;;;;;;5075076;28;20048;-61
2021/10/31 04:00:15;;;;;;;21.65;5.22;;;;;;;;;;5075956;28;20484;-61
2021/10/31 04:02:44;;;;;;;37.08;5.75;;;;;;;;;;5072523;28;20115;-58
2021/10/31 04:05:12;;;;;;;25.95;5.40;;;;;;;;;;5076299;28;20020;-51
2021/10/31 04:07:40;;;;;;;16.15;4.97;;;;;;;;;;5075928;28;20103;-60
2021/10/31 04:10:08;;;;;;;17.77;5.63;;;;;;;;;;5073693;28;20485;-60
2021/10/31 04:12:36;;;;;;;24.35;5.93;;;;;;;;;;5072914;28;20107;-60
2021/10/31 04:15:05;;;;;;;17.33;5.40;;;;;;;;;;5081487;28;20028;-61
2021/10/31 04:17:34;;;;;;;18.95;5.30;;;;;;;;;;5072188;28;20050;-60
2021/10/31 04:20:01;;;;;;;26.02;5.07;;;;;;;;;;5091761;28;20511;-52
2021/10/31 04:22:29;;;;;;;29.25;5.82;;;;;;;;;;5093979;28;20039;-56
2021/10/31 04:24:56;;;;;;;32.08;6.18;;;;;;;;;;5075547;28;20024;-56
2021/10/31 04:27:23;;;;;;;27.38;5.10;;;;;;;;;;5094598;28;20028;-54
2021/10/31 04:29:50;;;;;;;21.60;4.85;;;;;;;;;;5093173;28;20404;-59
2021/10/31 04:32:17;;;;;;;22.75;5.13;;;;;;;;;;5094648;28;20027;-55
2021/10/31 04:34:44;;;;;;;21.35;4.80;;;;;;;;;;5093729;28;20023;-58
2021/10/31 04:37:11;;;;;;;20.73;4.90;;;;;;;;;;5094382;28;20024;-50
2021/10/31 04:39:38;;;;;;;18.05;5.18;;;;;;;;;;5094070;28;20020;-54
2021/10/31 04:42:06;;;;;;;15.20;4.75;;;;;;;;;;5094499;28;20028;-51
2021/10/31 04:44:33;;;;;;;11.82;4.38;;;;;;;;;;5093612;28;20028;-52
2021/10/31 04:47:01;;;;;;;16.60;4.55;;;;;;;;;;5094097;28;20016;-51
2021/10/31 04:49:28;;;;;;;15.43;4.32;;;;;;;;;;5093992;28;20028;-54
2021/10/31 04:51:55;;;;;;;10.98;4.25;;;;;;;;;;5094183;28;20020;-56
2021/10/31 04:54:23;;;;;;;12.38;4.65;;;;;;;;;;5093752;28;20073;-53
2021/10/31 04:56:50;;;;;;;14.50;4.43;;;;;;;;;;5093355;28;20045;-57
2021/10/31 04:59:18;;;;;;;10.27;3.83;;;;;;;;;;5093568;28;20561;-53
2021/10/31 05:01:45;;;;;;;14.25;3.78;;;;;;;;;;5094191;28;20392;-49
2021/10/31 05:04:13;;;;;;;10.95;4.10;;;;;;;;;;5093565;28;20035;-53
2021/10/31 05:06:40;;;;;;;13.98;4.10;;;;;;;;;;5093891;28;20143;-55
2021/10/31 05:09:07;;;;;;;13.15;4.40;;;;;;;;;;5093850;28;20028;-55
2021/10/31 05:11:34;;;;;;;12.50;4.10;;;;;;;;;;5093376;28;20056;-49
2021/10/31 05:14:01;;;;;;;12.63;4.05;;;;;;;;;;5093573;28;20549;-51
2021/10/31 05:16:28;;;;;;;13.13;4.05;;;;;;;;;;5093469;28;20040;-54
2021/10/31 05:18:56;;;;;;;8.43;2.85;;;;;;;;;;5093780;28;20054;-51
2021/10/31 05:21:23;;;;;;;10.50;3.67;;;;;;;;;;5092867;28;20498;-52
2021/10/31 05:23:50;;;;;;;11.52;3.85;;;;;;;;;;5093634;28;20032;-58
2021/10/31 05:26:17;;;;;;;14.30;4.30;;;;;;;;;;5093190;28;20020;-56
2021/10/31 05:28:44;;;;;;;13.05;3.75;;;;;;;;;;5093381;28;20027;-58
2021/10/31 05:31:12;;;;;;;11.40;3.65;;;;;;;;;;5093095;28;20016;-56
2021/10/31 05:33:39;;;;;;;12.43;3.55;;;;;;;;;;5093479;28;20464;-56
2021/10/31 05:36:06;;;;;;;10.02;3.50;;;;;;;;;;5092800;28;20387;-51
2021/10/31 05:38:33;;;;;;;11.00;3.60;;;;;;;;;;5093385;28;20119;-57
2021/10/31 05:41:02;;;;;;;9.90;4.00;;;;;;;;;;5093113;28;20090;-50
2021/10/31 05:43:29;;;;;;;10.93;3.35;;;;;;;;;;5092602;28;20395;-58
2021/10/31 05:45:57;;;;;;;8.75;3.33;;;;;;;;;;5093186;28;20115;-48
2021/10/31 05:48:25;;;;;;;11.23;3.80;;;;;;;;;;5093071;28;20024;-56
2021/10/31 05:50:55;;;;;;;10.32;3.90;;;;;;;;;;5093167;28;20024;-53
2021/10/31 05:53:23;;;;;;;9.50;3.55;;;;;;;;;;5092509;28;20096;-52
2021/10/31 05:55:50;;;;;;;7.90;3.00;;;;;;;;;;5093260;28;20361;-55
2021/10/31 05:58:17;;;;;;;10.18;3.00;;;;;;;;;;5092271;28;20088;-57
2021/10/31 06:00:44;;;;;;;6.75;2.72;;;;;;;;;;5093039;28;20042;-54
2021/10/31 06:03:11;;;;;;;12.02;3.10;;;;;;;;;;5092323;28;20063;-49
2021/10/31 06:05:39;;;;;;;8.32;3.10;;;;;;;;;;5092661;28;20024;-52
2021/10/31 06:08:13;;;;;;;8.00;2.80;;;;;;;;;;5091750;28;20028;-50
2021/10/31 06:10:40;;;;;;;6.13;2.78;;;;;;;;;;5092211;28;20028;-53
2021/10/31 06:13:07;;;;;;;8.75;3.08;;;;;;;;;;5092204;28;20487;-51
2021/10/31 06:15:34;;;;;;;9.73;3.00;;;;;;;;;;5092301;28;20063;-51
2021/10/31 06:18:01;;;;;;;7.60;2.70;;;;;;;;;;5091945;28;20020;-54
2021/10/31 06:20:28;;;;;;;10.05;3.42;;;;;;;;;;5092820;28;20032;-56
2021/10/31 06:22:55;;;;;;;6.63;2.72;;;;;;;;;;5092131;28;20040;-52
2021/10/31 06:25:22;;;;;;;7.90;2.67;;;;;;;;;;5092111;28;20031;-52
2021/10/31 06:27:49;;;;;;;6.20;2.63;;;;;;;;;;5091919;28;20480;-51
2021/10/31 06:30:16;;;;;;;7.38;2.90;;;;;;;;;;5092541;28;20103;-55
2021/10/31 06:32:43;;;;;;;7.95;2.95;;;;;;;;;;5092151;28;20099;-51
2021/10/31 06:35:11;;;;;;;6.57;2.20;;;;;;;;;;5092233;28;20020;-56
2021/10/31 06:37:38;;;;;;;7.28;2.83;;;;;;;;;;5092166;28;20024;-53
2021/10/31 06:40:05;;;;;;;6.38;2.58;;;;;;;;;;5091938;28;20065;-48
2021/10/31 06:42:32;;;;;;;8.15;2.90;;;;;;;;;;5092304;28;20028;-51
2021/10/31 06:45:00;;;;;;;11.98;3.03;;;;;;;;;;5091408;28;20020;-53
2021/10/31 06:47:27;;;;;;;7.85;2.80;;;;;;;;;;5092133;28;20564;-50
2021/10/31 06:49:55;;;;;;;7.43;2.65;;;;;;;;;;5091915;28;20022;-53
2021/10/31 06:52:22;;;;;;;8.15;2.78;;;;;;;;;;5092225;28;20375;-52
2021/10/31 06:54:50;;;;;;;7.60;2.47;;;;;;;;;;5091272;28;20438;-52
2021/10/31 06:57:18;;;;;;;7.63;2.92;;;;;;;;;;5091681;28;20028;-50
2021/10/31 06:59:45;;;;;;;5.78;2.53;;;;;;;;;;5091550;28;20055;-53
2021/10/31 07:02:12;;;;;;;6.80;2.40;;;;;;;;;;5091939;28;20361;-53
2021/10/31 07:04:39;;;;;;;4.95;2.17;;;;;;;;;;5091681;28;20028;-57
2021/10/31 07:07:06;;;;;;;6.28;2.40;;;;;;;;;;5091566;28;20031;-52
2021/10/31 07:09:33;;;;;;;7.05;2.03;;;;;;;;;;5091548;28;20027;-55
2021/10/31 07:12:00;;;;;;;6.57;2.50;;;;;;;;;;5092080;28;20095;-55
2021/10/31 07:14:27;;;;;;;9.18;2.70;;;;;;;;;;5091323;28;20102;-55
2021/10/31 07:16:55;;;;;;;8.02;2.10;;;;;;;;;;5091645;28;20023;-53
2021/10/31 07:19:22;;;;;;;4.68;1.92;;;;;;;;;;5091691;28;20048;-54
2021/10/31 07:21:49;;;;;;;6.47;2.30;;;;;;;;;;5095222;28;20022;-51
2021/10/31 07:24:16;;;;;;;6.20;2.70;;;;;;;;;;5096135;28;20036;-58
2021/10/31 07:26:43;;;;;;;6.30;2.40;;;;;;;;;;5095374;28;20080;-56
2021/10/31 07:29:10;;;;;;;6.70;2.00;;;;;;;;;;5095516;28;20443;-52
2021/10/31 07:31:38;;;;;;;7.60;2.28;;;;;;;;;;5095503;28;20044;-57
2021/10/31 07:34:08;;;;;;;7.22;2.58;;;;;;;;;;5095782;28;20111;-50
2021/10/31 07:36:36;;;;;;;6.55;2.10;;;;;;;;;;5093525;28;20020;-51
2021/10/31 07:39:03;;;;;;;5.20;2.20;;;;;;;;;;5094308;28;20032;-53
2021/10/31 07:41:30;;;;;;;8.00;2.67;;;;;;;;;;5094901;28;20024;-51
2021/10/31 07:43:57;;;;;;;6.93;2.20;;;;;;;;;;5095555;28;20084;-55
2021/10/31 07:46:25;;;;;;;8.55;2.65;;;;;;;;;;5094928;28;20020;-52
2021/10/31 07:48:52;;;;;;;5.18;2.05;;;;;;;;;;5095458;28;20067;-53
2021/10/31 07:51:19;;;;;;;9.13;2.03;;;;;;;;;;5095033;28;20107;-53
2021/10/31 07:53:46;;;;;;;8.80;2.42;;;;;;;;;;5095372;28;20019;-53
2021/10/31 07:56:17;;;;;;;4.30;1.90;;;;;;;;;;5094720;28;20028;-55
2021/10/31 07:58:46;;;;;;;7.70;2.28;;;;;;;;;;5095124;28;20013;-55
2021/10/31 08:01:14;;;;;;;8.18;2.95;;;;;;;;;;5094718;28;20091;-53
2021/10/31 08:03:41;;;;;;;6.03;2.03;;;;;;;;;;5077038;28;20032;-54
2021/10/31 08:06:08;;;;;;;6.75;1.92;;;;;;;;;;5095253;28;20023;-56
2021/10/31 08:08:35;;;;;;;5.85;1.98;;;;;;;;;;5094654;28;20024;-54
2021/10/31 08:11:02;;;;;;;6.63;2.17;;;;;;;;;;5094759;28;20024;-51
2021/10/31 08:13:30;;;;;;;6.18;2.22;;;;;;;;;;5094868;28;20046;-54
2021/10/31 08:15:57;;;;;;;5.25;1.70;;;;;;;;;;5095056;28;20079;-56
2021/10/31 08:18:25;;;;;;;5.90;2.00;;;;;;;;;;5093969;28;20438;-53
2021/10/31 08:20:53;;;;;;;6.05;2.00;;;;;;;;;;5094982;28;20103;-51
2021/10/31 08:23:20;;;;;;;7.93;2.15;;;;;;;;;;5093882;28;20032;-53
2021/10/31 08:25:48;;;;;;;8.35;2.30;;;;;;;;;;5076853;28;20054;-51
2021/10/31 08:28:16;;;;;;;8.85;2.45;;;;;;;;;;5093725;28;20484;-51
2021/10/31 08:30:56;;;;;;;4.53;1.73;;;;;;;;;;5095068;28;20051;-53
2021/10/31 08:33:26;;;;;;;4.38;1.77;;;;;;;;;;5092976;28;20111;-54
2021/10/31 08:35:53;;;;;;;8.77;2.22;;;;;;;;;;5093812;28;20099;-51
2021/10/31 08:38:20;;;;;;;6.85;1.83;;;;;;;;;;5093765;28;20028;-54
2021/10/31 08:40:49;;;;;;;4.65;2.15;;;;;;;;;;5094727;28;20024;-52
2021/10/31 08:43:17;;;;;;;5.03;2.05;;;;;;;;;;5094155;28;20089;-48
2021/10/31 08:45:44;;;;;;;5.88;2.20;;;;;;;;;;5094418;28;20675;-50
2021/10/31 08:48:11;;;;;;;5.55;1.88;;;;;;;;;;5094160;28;20468;-52
2021/10/31 08:50:38;;;;;;;4.60;1.70;;;;;;;;;;5093726;28;20019;-57
2021/10/31 08:53:06;;;;;;;5.47;2.00;;;;;;;;;;5094083;28;20024;-62
2021/10/31 08:55:34;;;;;;;6.47;2.03;;;;;;;;;;5093904;28;20055;-55
2021/10/31 08:58:01;;;;;;;5.22;1.88;;;;;;;;;;5093918;28;20488;-55
2021/10/31 09:00:28;;;;;;;6.15;1.77;;;;;;;;;;5093739;28;20028;-59
2021/10/31 09:02:55;;;;;;;5.05;1.92;;;;;;;;;;5094084;28;20036;-58
2021/10/31 09:05:22;;;;;;;5.28;1.90;;;;;;;;;;5093355;28;20830;-57
2021/10/31 09:07:49;;;;;;;6.88;1.85;;;;;;;;;;5093581;28;20034;-52
2021/10/31 09:10:16;;;;;;;6.88;2.22;;;;;;;;;;5075364;28;20024;-56
2021/10/31 09:12:43;;;;;;;5.22;1.75;;;;;;;;;;5094004;28;20035;-54
2021/10/31 09:15:10;;;;;;;4.15;1.85;;;;;;;;;;5093110;28;20020;-48
2021/10/31 09:17:37;;;;;;;5.18;1.90;;;;;;;;;;5093401;28;20471;-61
2021/10/31 09:20:04;;;;;;;6.13;2.08;;;;;;;;;;5092946;28;20062;-56
2021/10/31 09:22:32;;;;;;;4.00;1.80;;;;;;;;;;5093688;28;20431;-54
2021/10/31 09:24:59;;;;;;;4.28;1.45;;;;;;;;;;5093500;28;20043;-50
2021/10/31 09:27:26;;;;;;;6.90;1.80;;;;;;;;;;5093347;28;20043;-54
2021/10/31 09:29:53;;;;;;;4.25;1.60;;;;;;;;;;5075269;28;20028;-51
2021/10/31 09:32:25;;;;;;;4.63;1.60;;;;;;;;;;5093166;28;20030;-58
2021/10/31 09:34:52;;;;;;;;;;;;;;;;;;5093756;28;20020;-50
2021/10/31 09:37:20;;;;;;;6.88;1.77;;;;;;;;;;5092592;28;19994;-55
2021/10/31 09:39:48;;;;;;;6.32;1.90;;;;;;;;;;5093243;28;20021;-56
2021/10/31 09:42:15;;;;;;;5.53;2.05;;;;;;;;;;5093177;28;20074;-50
2021/10/31 09:44:48;;;;;;;5.70;1.75;;;;;;;;;;5075338;28;20481;-55
2021/10/31 09:47:16;;;;;;;6.50;1.90;;;;;;;;;;5091995;28;20438;-51
2021/10/31 09:49:43;;;;;;;4.18;1.80;;;;;;;;;;5093165;28;20024;-54
2021/10/31 09:52:10;;;;;;;4.00;1.60;;;;;;;;;;5092824;28;20036;-58
2021/10/31 09:54:37;;;;;;;4.55;1.80;;;;;;;;;;5093151;28;20142;-48
2021/10/31 09:57:04;;;;;;;4.13;1.60;;;;;;;;;;5092494;28;20069;-53
2021/10/31 09:59:38;;;;;;;4.60;1.60;;;;;;;;;;5092714;28;20032;-58
2021/10/31 10:04:34;;;;;;;4.13;1.52;;;;;;;;;;5092926;28;20043;-50
2021/10/31 10:07:02;;;;;;;2.17;1.23;;;;;;;;;;5092252;28;20021;-50
2021/10/31 10:09:30;;;;;;;5.65;1.67;;;;;;;;;;5092702;28;20032;-54
2021/10/31 10:11:58;;;;;;;5.80;1.58;;;;;;;;;;5092046;28;20017;-49
2021/10/31 10:14:29;;;;;;;4.45;1.55;;;;;;;;;;5092723;28;20031;-49
2021/10/31 10:16:57;;;;;;;5.22;2.08;;;;;;;;;;5092202;28;20494;-51
2021/10/31 10:19:24;;;;;;;5.82;1.70;;;;;;;;;;5092065;28;20059;-56
2021/10/31 10:21:57;;;;;;;4.45;1.50;;;;;;;;;;5092827;28;20016;-51
2021/10/31 10:24:24;;;;;;;6.10;1.88;;;;;;;;;;5091947;28;20115;-56
2021/10/31 10:26:55;;;;;;;8.88;1.83;;;;;;;;;;5092256;28;20028;-57
2021/10/31 10:29:26;;;;;;;3.20;1.27;;;;;;;;;;5091392;28;20843;-53
2021/10/31 10:31:59;;;;;;;4.68;1.60;;;;;;;;;;5092760;28;20028;-50
2021/10/31 10:34:33;;;;;;;4.97;1.70;;;;;;;;;;5091799;28;20111;-57
2021/10/31 10:37:05;;;;;;;4.72;1.42;;;;;;;;;;5092183;28;20075;-54
2021/10/31 10:39:32;;;;;;;;;;;;;;;;;;5091974;28;20024;-55
2021/10/31 10:41:59;;;;;;;5.10;1.48;;;;;;;;;;5092298;28;19908;-56
2021/10/31 10:44:26;;;;;;;4.47;1.60;;;;;;;;;;5091850;28;20081;-50
2021/10/31 10:46:55;;;;;;;3.25;1.40;;;;;;;;;;5092123;28;20024;-52
2021/10/31 10:49:24;;;;;;;4.07;1.48;;;;;;;;;;5091434;28;20024;-51
2021/10/31 10:52:06;;;;;;;3.70;1.35;;;;;;;;;;5092283;28;20028;-56
2021/10/31 10:54:34;;;;;;;3.20;1.20;;;;;;;;;;5090994;28;20476;-55
2021/10/31 10:57:02;;;;;;;2.97;1.33;;;;;;;;;;5091721;28;20400;-50
2021/10/31 10:59:30;;;;;;;3.97;1.35;;;;;;;;;;5091435;28;20556;-49
2021/10/31 11:02:10;;;;;;;4.28;1.50;;;;;;;;;;5092019;28;20020;-51
2021/10/31 11:04:38;;;;;;;4.18;1.48;;;;;;;;;;5091309;28;20066;-49
2021/10/31 11:07:06;;;;;;;2.60;1.27;;;;;;;;;;5091461;28;20091;-49
2021/10/31 11:09:46;;;;;;;3.72;1.35;;;;;;;;;;5091350;28;20044;-56
2021/10/31 11:12:30;;;;;;;3.33;1.40;;;;;;;;;;5092053;28;20038;-55
2021/10/31 11:14:59;;;;;;;4.82;1.40;;;;;;;;;;5091046;28;20024;-49
2021/10/31 11:17:26;;;;;;;3.67;1.23;;;;;;;;;;5091514;28;20028;-54
2021/10/31 11:19:54;;;;;;;3.97;1.50;;;;;;;;;;5091048;28;20449;-53
2021/10/31 11:22:22;;;;;;;3.92;1.60;;;;;;;;;;5073798;28;20047;-53
2021/10/31 11:24:50;;;;;;;5.78;1.50;;;;;;;;;;5091677;28;20089;-49
2021/10/31 11:27:19;;;;;;;2.83;1.23;;;;;;;;;;5091210;28;20058;-54
2021/10/31 11:29:48;;;;;;;3.58;1.38;;;;;;;;;;5091370;28;20541;-51
2021/10/31 11:32:15;;;;;;;3.45;1.10;;;;;;;;;;5091244;28;20054;-51
2021/10/31 11:34:47;;;;;;;4.18;1.30;;;;;;;;;;5091744;28;20581;-51
2021/10/31 11:37:15;;;;;;;3.47;1.30;;;;;;;;;;5090910;28;20024;-56
2021/10/31 11:39:43;;;;;;;3.45;1.20;;;;;;;;;;5091471;28;20024;-51
2021/10/31 11:42:11;;;;;;;4.13;1.20;;;;;;;;;;5091121;28;20070;-53
2021/10/31 11:44:56;;;;;;;4.57;1.20;;;;;;;;;;5091366;28;20035;-50
2021/10/31 11:47:29;;;;;;;3.50;1.38;;;;;;;;;;5090786;28;20043;-54
2021/10/31 11:49:55;;;;;;;;;;;;;;;;;;5091815;28;20111;-52
2021/10/31 11:52:40;;;;;;;2.95;1.20;;;;;;;;;;5091189;28;19908;-52
2021/10/31 11:55:27;;;;;;;3.45;1.27;;;;;;;;;;5091458;28;20024;-53
2021/10/31 11:57:58;;;;;;;2.47;1.02;;;;;;;;;;5090926;28;20462;-53
2021/10/31 12:00:26;;;;;;;2.50;1.00;;;;;;;;;;5090972;28;20107;-53
2021/10/31 12:02:58;;;;;;;2.38;0.95;;;;;;;;;;5091009;28;20549;-50
2021/10/31 12:05:41;;;;;;;4.35;1.20;;;;;;;;;;5091293;28;20028;-58
2021/10/31 12:08:31;;;;;;;3.45;1.60;;;;;;;;;;5094659;28;20028;-53
2021/10/31 12:10:58;;;;;;;2.63;1.20;;;;;;;;;;5095134;28;20050;-58
2021/10/31 12:13:25;;;;;;;3.40;1.33;;;;;;;;;;5094606;28;20039;-53
2021/10/31 12:15:59;;;;;;;2.72;1.10;;;;;;;;;;5086560;28;20029;-54
2021/10/31 12:18:44;;;;;;;2.65;1.25;;;;;;;;;;5073624;28;20412;-59
2021/10/31 12:21:29;;;;;;;4.38;1.20;;;;;;;;;;5074210;28;20103;-54
2021/10/31 12:23:58;;;;;;;3.15;1.08;;;;;;;;;;5074090;28;20055;-55
2021/10/31 12:26:26;;;;;;;2.17;1.08;;;;;;;;;;5074360;28;20095;-54
2021/10/31 12:29:08;;;;;;;4.50;1.13;;;;;;;;;;5073337;28;20029;-52
2021/10/31 12:31:35;;;;;;;4.22;1.17;;;;;;;;;;5074214;28;20017;-49
2021/10/31 12:34:10;;;;;;;3.25;1.08;;;;;;;;;;5075709;28;20418;-54
2021/10/31 12:36:39;;;;;;;1.88;0.88;;;;;;;;;;5073722;28;20021;-49
2021/10/31 12:39:24;;;;;;;2.95;1.20;;;;;;;;;;5057510;28;20430;-53
2021/10/31 12:42:10;;;;;;;2.92;1.05;;;;;;;;;;5073247;28;20044;-50
2021/10/31 12:44:38;;;;;;;2.55;1.20;;;;;;;;;;5071082;28;20032;-48
2021/10/31 12:47:11;;;;;;;4.35;1.50;;;;;;;;;;5077728;28;20472;-52
2021/10/31 12:49:39;;;;;;;3.17;0.85;;;;;;;;;;5072268;28;20392;-53
2021/10/31 12:52:18;;;;;;;3.53;1.17;;;;;;;;;;5073309;28;20035;-53
2021/10/31 12:54:45;;;;;;;2.67;1.08;;;;;;;;;;5074277;28;20120;-49
2021/10/31 12:57:13;;;;;;;2.80;1.13;;;;;;;;;;5059765;28;20103;-55
2021/10/31 12:59:47;;;;;;;3.03;1.10;;;;;;;;;;5072170;28;20062;-51
2021/10/31 13:02:21;;;;;;;5.47;1.10;;;;;;;;;;5073431;28;20020;-56
2021/10/31 13:04:50;;;;;;;2.20;0.80;;;;;;;;;;5075356;28;20086;-56
2021/10/31 13:07:17;;;;;;;5.93;1.42;;;;;;;;;;5071599;28;20048;-51
2021/10/31 13:09:47;;;;;;;3.47;1.10;;;;;;;;;;5072747;28;20039;-51
2021/10/31 13:12:24;;;;;;;3.67;1.20;;;;;;;;;;5072339;28;20025;-52
2021/10/31 13:14:51;;;;;;;3.90;1.10;;;;;;;;;;5075496;28;20029;-51
2021/10/31 13:17:18;;;;;;;3.28;0.93;;;;;;;;;;5071501;28;20474;-52
2021/10/31 13:19:46;;;;;;;4.38;1.15;;;;;;;;;;5071934;28;20045;-55
2021/10/31 13:22:19;;;;;;;3.13;0.90;;;;;;;;;;5054612;28;20024;-54
2021/10/31 13:24:48;;;;;;;3.55;1.10;;;;;;;;;;5075200;28;21030;-56
2021/10/31 13:27:22;;;;;;;3.15;1.02;;;;;;;;;;5071135;28;20028;-52
2021/10/31 13:29:50;;;;;;;2.70;1.00;;;;;;;;;;5071941;28;20026;-52
2021/10/31 13:32:18;;;;;;;6.43;1.20;;;;;;;;;;5047183;28;20439;-52
2021/10/31 13:34:46;;;;;;;2.88;0.85;;;;;;;;;;5074877;28;20072;-51
2021/10/31 13:37:16;;;;;;;7.78;1.10;;;;;;;;;;5070010;28;20028;-51
2021/10/31 13:40:04;;;;;;;12.82;1.20;;;;;;;;;;5070416;28;20353;-59
2021/10/31 13:42:33;;;;;;;5.72;1.10;;;;;;;;;;5070761;28;20103;-59
2021/10/31 13:45:04;;;;;;;4.95;1.10;;;;;;;;;;5075826;28;20017;-55
2021/10/31 13:47:38;;;;;;;6.13;1.20;;;;;;;;;;5079786;28;20088;-61
2021/10/31 13:50:26;;;;;;;8.52;1.10;;;;;;;;;;5052643;28;20549;-63
2021/10/31 13:52:57;;;;;;;6.05;1.35;;;;;;;;;;5071590;28;20044;-63
2021/10/31 13:55:27;;;;;;;5.78;1.08;;;;;;;;;;5068794;28;20090;-62
2021/10/31 13:57:54;;;;;;;2.67;1.00;;;;;;;;;;5068272;28;20028;-54
2021/10/31 14:00:23;;;;;;;2.67;0.88;;;;;;;;;;5075992;28;20104;-53
2021/10/31 14:02:51;;;;;;;6.63;1.20;;;;;;;;;;5068737;28;20033;-53
2021/10/31 14:05:20;;;;;;;6.18;1.20;;;;;;;;;;5068988;28;20030;-59
2021/10/31 14:07:50;;;;;;;5.15;0.93;;;;;;;;;;5072300;28;20404;-50
2021/10/31 14:10:19;;;;;;;5.10;0.90;;;;;;;;;;5071920;28;20422;-58
2021/10/31 14:12:47;;;;;;;5.35;1.08;;;;;;;;;;5069753;28;20576;-63
2021/10/31 14:15:16;;;;;;;4.72;1.10;;;;;;;;;;5070261;28;20078;-59
2021/10/31 14:18:03;;;;;;;2.90;0.93;;;;;;;;;;5069758;28;20571;-57
2021/10/31 14:20:37;;;;;;;5.00;0.95;;;;;;;;;;5069806;28;20029;-59
2021/10/31 14:23:07;;;;;;;3.78;0.80;;;;;;;;;;5070871;28;20076;-64
2021/10/31 14:25:45;;;;;;;10.25;1.20;;;;;;;;;;5067511;28;20074;-60
2021/10/31 14:28:13;;;;;;;14.30;1.73;;;;;;;;;;5076927;28;20107;-51
2021/10/31 14:30:42;;;;;;;4.78;0.82;;;;;;;;;;5069168;28;20016;-56
2021/10/31 14:33:21;;;;;;;10.32;1.45;;;;;;;;;;5052481;28;20024;-59
2021/10/31 14:35:50;;;;;;;4.45;0.95;;;;;;;;;;5070475;28;20021;-59
2021/10/31 14:38:30;;;;;;;3.55;0.85;;;;;;;;;;5070680;28;20016;-63
2021/10/31 14:41:03;;;;;;;6.53;1.38;;;;;;;;;;5070186;28;20025;-58
2021/10/31 14:43:31;;;;;;;6.25;0.88;;;;;;;;;;5070418;28;20495;-62
2021/10/31 14:46:00;;;;;;;9.13;1.00;;;;;;;;;;5070989;28;20020;-63
2021/10/31 14:48:31;;;;;;;7.70;1.00;;;;;;;;;;5070226;28;20024;-59
2021/10/31 14:50:59;;;;;;;4.23;1.40;;;;;;;;;;5067574;28;20044;-59
2021/10/31 14:53:27;;;;;;;3.38;1.05;;;;;;;;;;5069746;28;20060;-56